sensor_id;sensor_type;location;lat;lon;timestamp;P1;durP1;ratioP1;P2;durP2;ratioP2
57635;SDS011;43465;50.728;4.160;2023-04-23T00:00:05;24.23;;;20.98;;
57635;SDS011;43465;50.728;4.160;2023-04-23T00:02:32;23.20;;;20.33;;
57635;SDS011;43465;50.728;4.160;2023-04-23T00:05:01;23.98;;;20.55;;
57635;SDS011;43465;50.728;4.160;2023-04-23T00:07:34;24.40;;;20.52;;
57635;SDS011;43465;50.728;4.160;2023-04-23T00:10:00;22.80;;;20.20;;
57635;SDS011;43465;50.728;4.160;2023-04-23T00:12:30;25.75;;;20.13;;
57635;SDS011;43465;50.728;4.160;2023-04-23T00:14:56;21.95;;;18.55;;
57635;SDS011;43465;50.728;4.160;2023-04-23T00:17:23;23.20;;;20.15;;
57635;SDS011;43465;50.728;4.160;2023-04-23T00:19:48;21.67;;;19.27;;
57635;SDS011;43465;50.728;4.160;2023-04-23T00:22:15;25.20;;;18.38;;
57635;SDS011;43465;50.728;4.160;2023-04-23T00:24:41;21.13;;;18.25;;
57635;SDS011;43465;50.728;4.160;2023-04-23T00:27:07;21.65;;;18.70;;
57635;SDS011;43465;50.728;4.160;2023-04-23T00:29:33;21.63;;;18.73;;
57635;SDS011;43465;50.728;4.160;2023-04-23T00:32:00;22.20;;;18.38;;
57635;SDS011;43465;50.728;4.160;2023-04-23T00:34:27;23.48;;;18.17;;
57635;SDS011;43465;50.728;4.160;2023-04-23T00:36:52;22.65;;;18.48;;
57635;SDS011;43465;50.728;4.160;2023-04-23T00:39:18;20.45;;;17.85;;
57635;SDS011;43465;50.728;4.160;2023-04-23T00:41:44;21.85;;;18.60;;
57635;SDS011;43465;50.728;4.160;2023-04-23T00:44:10;20.77;;;18.23;;
57635;SDS011;43465;50.728;4.160;2023-04-23T00:46:37;21.30;;;18.75;;
57635;SDS011;43465;50.728;4.160;2023-04-23T00:49:03;21.70;;;18.85;;
57635;SDS011;43465;50.728;4.160;2023-04-23T00:51:28;22.08;;;18.98;;
57635;SDS011;43465;50.728;4.160;2023-04-23T00:53:56;22.40;;;19.35;;
57635;SDS011;43465;50.728;4.160;2023-04-23T00:56:22;20.70;;;17.80;;
57635;SDS011;43465;50.728;4.160;2023-04-23T00:58:50;21.25;;;18.45;;
57635;SDS011;43465;50.728;4.160;2023-04-23T01:01:16;22.00;;;19.13;;
57635;SDS011;43465;50.728;4.160;2023-04-23T01:03:44;22.67;;;19.00;;
57635;SDS011;43465;50.728;4.160;2023-04-23T01:06:15;21.83;;;18.92;;
57635;SDS011;43465;50.728;4.160;2023-04-23T01:08:44;25.25;;;19.85;;
57635;SDS011;43465;50.728;4.160;2023-04-23T01:11:14;23.08;;;19.75;;
57635;SDS011;43465;50.728;4.160;2023-04-23T01:13:40;23.42;;;20.15;;
57635;SDS011;43465;50.728;4.160;2023-04-23T01:16:06;23.38;;;20.00;;
57635;SDS011;43465;50.728;4.160;2023-04-23T01:18:33;26.58;;;19.42;;
57635;SDS011;43465;50.728;4.160;2023-04-23T01:20:58;22.65;;;20.25;;
57635;SDS011;43465;50.728;4.160;2023-04-23T01:23:25;24.17;;;19.50;;
57635;SDS011;43465;50.728;4.160;2023-04-23T01:25:52;23.75;;;19.67;;
57635;SDS011;43465;50.728;4.160;2023-04-23T01:28:18;22.13;;;19.42;;
57635;SDS011;43465;50.728;4.160;2023-04-23T01:30:45;23.70;;;19.95;;
57635;SDS011;43465;50.728;4.160;2023-04-23T01:33:12;22.60;;;19.20;;
57635;SDS011;43465;50.728;4.160;2023-04-23T01:35:39;24.75;;;20.95;;
57635;SDS011;43465;50.728;4.160;2023-04-23T01:38:10;24.15;;;20.67;;
57635;SDS011;43465;50.728;4.160;2023-04-23T01:40:38;24.20;;;20.70;;
57635;SDS011;43465;50.728;4.160;2023-04-23T01:43:05;23.25;;;20.05;;
57635;SDS011;43465;50.728;4.160;2023-04-23T01:45:32;26.02;;;20.73;;
57635;SDS011;43465;50.728;4.160;2023-04-23T01:47:58;22.27;;;19.67;;
57635;SDS011;43465;50.728;4.160;2023-04-23T01:50:24;23.73;;;19.08;;
57635;SDS011;43465;50.728;4.160;2023-04-23T01:52:51;23.25;;;18.38;;
57635;SDS011;43465;50.728;4.160;2023-04-23T01:55:17;22.27;;;18.63;;
57635;SDS011;43465;50.728;4.160;2023-04-23T01:57:43;21.95;;;18.60;;
57635;SDS011;43465;50.728;4.160;2023-04-23T02:00:10;22.92;;;18.52;;
57635;SDS011;43465;50.728;4.160;2023-04-23T02:02:38;22.27;;;17.63;;
57635;SDS011;43465;50.728;4.160;2023-04-23T02:05:15;23.98;;;17.80;;
57635;SDS011;43465;50.728;4.160;2023-04-23T02:07:43;21.05;;;16.95;;
57635;SDS011;43465;50.728;4.160;2023-04-23T02:10:09;24.85;;;17.90;;
57635;SDS011;43465;50.728;4.160;2023-04-23T02:12:36;20.65;;;17.65;;
57635;SDS011;43465;50.728;4.160;2023-04-23T02:15:02;22.63;;;17.48;;
57635;SDS011;43465;50.728;4.160;2023-04-23T02:17:28;24.75;;;17.15;;
57635;SDS011;43465;50.728;4.160;2023-04-23T02:19:54;20.20;;;17.60;;
57635;SDS011;43465;50.728;4.160;2023-04-23T02:22:22;19.52;;;17.42;;
57635;SDS011;43465;50.728;4.160;2023-04-23T02:24:50;21.38;;;16.42;;
57635;SDS011;43465;50.728;4.160;2023-04-23T02:27:16;26.27;;;17.50;;
57635;SDS011;43465;50.728;4.160;2023-04-23T02:29:43;20.60;;;16.80;;
57635;SDS011;43465;50.728;4.160;2023-04-23T02:32:09;21.58;;;17.33;;
57635;SDS011;43465;50.728;4.160;2023-04-23T02:34:35;18.27;;;16.20;;
57635;SDS011;43465;50.728;4.160;2023-04-23T02:37:01;20.83;;;17.35;;
57635;SDS011;43465;50.728;4.160;2023-04-23T02:39:29;20.02;;;17.00;;
57635;SDS011;43465;50.728;4.160;2023-04-23T02:41:55;21.30;;;17.70;;
57635;SDS011;43465;50.728;4.160;2023-04-23T02:44:22;22.30;;;17.90;;
57635;SDS011;43465;50.728;4.160;2023-04-23T02:46:48;20.85;;;17.50;;
57635;SDS011;43465;50.728;4.160;2023-04-23T02:49:14;19.92;;;17.15;;
57635;SDS011;43465;50.728;4.160;2023-04-23T02:51:40;21.60;;;18.13;;
57635;SDS011;43465;50.728;4.160;2023-04-23T02:54:05;20.98;;;17.17;;
57635;SDS011;43465;50.728;4.160;2023-04-23T02:56:31;19.05;;;16.85;;
57635;SDS011;43465;50.728;4.160;2023-04-23T02:58:57;23.30;;;17.48;;
57635;SDS011;43465;50.728;4.160;2023-04-23T03:01:23;21.85;;;17.10;;
57635;SDS011;43465;50.728;4.160;2023-04-23T03:03:48;19.48;;;16.13;;
57635;SDS011;43465;50.728;4.160;2023-04-23T03:06:14;22.40;;;17.33;;
57635;SDS011;43465;50.728;4.160;2023-04-23T03:08:40;19.90;;;16.67;;
57635;SDS011;43465;50.728;4.160;2023-04-23T03:11:05;24.85;;;17.17;;
57635;SDS011;43465;50.728;4.160;2023-04-23T03:13:31;21.25;;;16.50;;
57635;SDS011;43465;50.728;4.160;2023-04-23T03:15:57;21.05;;;16.55;;
57635;SDS011;43465;50.728;4.160;2023-04-23T03:18:23;19.92;;;16.13;;
57635;SDS011;43465;50.728;4.160;2023-04-23T03:20:48;23.55;;;16.85;;
57635;SDS011;43465;50.728;4.160;2023-04-23T03:23:14;19.42;;;16.45;;
57635;SDS011;43465;50.728;4.160;2023-04-23T03:25:40;19.67;;;15.85;;
57635;SDS011;43465;50.728;4.160;2023-04-23T03:28:06;18.08;;;15.10;;
57635;SDS011;43465;50.728;4.160;2023-04-23T03:30:32;18.60;;;15.23;;
57635;SDS011;43465;50.728;4.160;2023-04-23T03:32:58;20.55;;;16.23;;
57635;SDS011;43465;50.728;4.160;2023-04-23T03:35:26;16.85;;;15.05;;
57635;SDS011;43465;50.728;4.160;2023-04-23T03:37:52;19.25;;;15.52;;
57635;SDS011;43465;50.728;4.160;2023-04-23T03:40:18;20.13;;;15.70;;
57635;SDS011;43465;50.728;4.160;2023-04-23T03:42:44;17.42;;;14.55;;
57635;SDS011;43465;50.728;4.160;2023-04-23T03:45:10;19.10;;;15.43;;
57635;SDS011;43465;50.728;4.160;2023-04-23T03:47:35;18.08;;;14.90;;
57635;SDS011;43465;50.728;4.160;2023-04-23T03:50:01;17.40;;;15.57;;
57635;SDS011;43465;50.728;4.160;2023-04-23T03:52:28;18.50;;;14.85;;
57635;SDS011;43465;50.728;4.160;2023-04-23T03:54:54;23.33;;;14.73;;
57635;SDS011;43465;50.728;4.160;2023-04-23T03:57:19;17.55;;;14.75;;
57635;SDS011;43465;50.728;4.160;2023-04-23T03:59:45;16.50;;;14.07;;
57635;SDS011;43465;50.728;4.160;2023-04-23T04:02:11;19.25;;;14.20;;
57635;SDS011;43465;50.728;4.160;2023-04-23T04:04:37;18.73;;;14.07;;
57635;SDS011;43465;50.728;4.160;2023-04-23T04:07:02;19.63;;;14.23;;
57635;SDS011;43465;50.728;4.160;2023-04-23T04:09:28;18.77;;;13.55;;
57635;SDS011;43465;50.728;4.160;2023-04-23T04:11:54;17.70;;;13.32;;
57635;SDS011;43465;50.728;4.160;2023-04-23T04:14:20;17.48;;;12.80;;
57635;SDS011;43465;50.728;4.160;2023-04-23T04:16:46;19.15;;;13.93;;
57635;SDS011;43465;50.728;4.160;2023-04-23T04:19:12;16.88;;;13.55;;
57635;SDS011;43465;50.728;4.160;2023-04-23T04:21:38;16.45;;;13.32;;
57635;SDS011;43465;50.728;4.160;2023-04-23T04:24:03;17.60;;;13.10;;
57635;SDS011;43465;50.728;4.160;2023-04-23T04:26:30;14.45;;;12.30;;
57635;SDS011;43465;50.728;4.160;2023-04-23T04:28:56;17.45;;;12.98;;
57635;SDS011;43465;50.728;4.160;2023-04-23T04:31:23;16.50;;;12.20;;
57635;SDS011;43465;50.728;4.160;2023-04-23T04:33:55;17.67;;;12.40;;
57635;SDS011;43465;50.728;4.160;2023-04-23T04:36:22;13.25;;;11.02;;
57635;SDS011;43465;50.728;4.160;2023-04-23T04:38:51;16.33;;;11.95;;
57635;SDS011;43465;50.728;4.160;2023-04-23T04:41:20;14.60;;;11.82;;
57635;SDS011;43465;50.728;4.160;2023-04-23T04:43:46;15.10;;;10.77;;
57635;SDS011;43465;50.728;4.160;2023-04-23T04:46:12;20.35;;;12.40;;
57635;SDS011;43465;50.728;4.160;2023-04-23T04:48:39;19.83;;;11.23;;
57635;SDS011;43465;50.728;4.160;2023-04-23T04:51:05;16.48;;;10.95;;
57635;SDS011;43465;50.728;4.160;2023-04-23T04:53:31;14.95;;;10.32;;
57635;SDS011;43465;50.728;4.160;2023-04-23T04:55:57;12.13;;;10.05;;
57635;SDS011;43465;50.728;4.160;2023-04-23T04:58:22;14.95;;;9.63;;
57635;SDS011;43465;50.728;4.160;2023-04-23T05:00:48;18.70;;;10.85;;
57635;SDS011;43465;50.728;4.160;2023-04-23T05:03:16;17.35;;;10.20;;
57635;SDS011;43465;50.728;4.160;2023-04-23T05:05:43;14.30;;;10.05;;
57635;SDS011;43465;50.728;4.160;2023-04-23T05:08:09;16.33;;;9.48;;
57635;SDS011;43465;50.728;4.160;2023-04-23T05:10:35;17.08;;;9.85;;
57635;SDS011;43465;50.728;4.160;2023-04-23T05:13:01;14.80;;;10.05;;
57635;SDS011;43465;50.728;4.160;2023-04-23T05:15:27;14.07;;;8.98;;
57635;SDS011;43465;50.728;4.160;2023-04-23T05:17:52;13.52;;;9.07;;
57635;SDS011;43465;50.728;4.160;2023-04-23T05:20:19;15.43;;;9.90;;
57635;SDS011;43465;50.728;4.160;2023-04-23T05:22:45;13.63;;;8.18;;
57635;SDS011;43465;50.728;4.160;2023-04-23T05:25:11;14.80;;;8.70;;
57635;SDS011;43465;50.728;4.160;2023-04-23T05:27:37;13.70;;;8.75;;
57635;SDS011;43465;50.728;4.160;2023-04-23T05:30:04;13.20;;;8.20;;
57635;SDS011;43465;50.728;4.160;2023-04-23T05:32:32;12.30;;;8.45;;
57635;SDS011;43465;50.728;4.160;2023-04-23T05:34:59;9.80;;;8.30;;
57635;SDS011;43465;50.728;4.160;2023-04-23T05:37:26;15.45;;;8.27;;
57635;SDS011;43465;50.728;4.160;2023-04-23T05:39:52;13.82;;;7.03;;
57635;SDS011;43465;50.728;4.160;2023-04-23T05:42:18;12.73;;;7.30;;
57635;SDS011;43465;50.728;4.160;2023-04-23T05:44:44;12.98;;;7.65;;
57635;SDS011;43465;50.728;4.160;2023-04-23T05:47:11;14.10;;;7.57;;
57635;SDS011;43465;50.728;4.160;2023-04-23T05:49:37;10.00;;;7.15;;
57635;SDS011;43465;50.728;4.160;2023-04-23T05:52:03;13.38;;;6.30;;
57635;SDS011;43465;50.728;4.160;2023-04-23T05:54:29;9.65;;;6.53;;
57635;SDS011;43465;50.728;4.160;2023-04-23T05:56:55;13.45;;;6.43;;
57635;SDS011;43465;50.728;4.160;2023-04-23T05:59:21;11.48;;;6.28;;
57635;SDS011;43465;50.728;4.160;2023-04-23T06:01:47;14.77;;;6.03;;
57635;SDS011;43465;50.728;4.160;2023-04-23T06:04:13;9.93;;;5.32;;
57635;SDS011;43465;50.728;4.160;2023-04-23T06:06:39;13.63;;;5.85;;
57635;SDS011;43465;50.728;4.160;2023-04-23T06:09:06;11.90;;;5.63;;
57635;SDS011;43465;50.728;4.160;2023-04-23T06:11:32;11.25;;;5.57;;
57635;SDS011;43465;50.728;4.160;2023-04-23T06:13:59;10.52;;;5.80;;
57635;SDS011;43465;50.728;4.160;2023-04-23T06:16:28;13.00;;;5.38;;
57635;SDS011;43465;50.728;4.160;2023-04-23T06:18:54;10.25;;;4.90;;
57635;SDS011;43465;50.728;4.160;2023-04-23T06:21:23;10.77;;;5.30;;
57635;SDS011;43465;50.728;4.160;2023-04-23T06:23:49;12.63;;;5.22;;
57635;SDS011;43465;50.728;4.160;2023-04-23T06:26:15;11.38;;;4.60;;
57635;SDS011;43465;50.728;4.160;2023-04-23T06:28:42;10.23;;;4.65;;
57635;SDS011;43465;50.728;4.160;2023-04-23T06:31:08;9.07;;;4.40;;
57635;SDS011;43465;50.728;4.160;2023-04-23T06:33:34;9.35;;;4.18;;
57635;SDS011;43465;50.728;4.160;2023-04-23T06:36:01;13.25;;;4.18;;
57635;SDS011;43465;50.728;4.160;2023-04-23T06:38:27;9.45;;;4.25;;
57635;SDS011;43465;50.728;4.160;2023-04-23T06:40:53;13.13;;;4.25;;
57635;SDS011;43465;50.728;4.160;2023-04-23T06:43:19;11.15;;;4.15;;
57635;SDS011;43465;50.728;4.160;2023-04-23T06:45:45;10.45;;;4.28;;
57635;SDS011;43465;50.728;4.160;2023-04-23T06:48:11;12.38;;;3.97;;
57635;SDS011;43465;50.728;4.160;2023-04-23T06:50:37;9.35;;;3.83;;
57635;SDS011;43465;50.728;4.160;2023-04-23T06:53:04;7.60;;;3.90;;
57635;SDS011;43465;50.728;4.160;2023-04-23T06:55:30;8.25;;;4.10;;
57635;SDS011;43465;50.728;4.160;2023-04-23T06:57:56;11.88;;;4.03;;
57635;SDS011;43465;50.728;4.160;2023-04-23T07:00:22;8.35;;;4.15;;
57635;SDS011;43465;50.728;4.160;2023-04-23T07:02:48;12.60;;;4.32;;
57635;SDS011;43465;50.728;4.160;2023-04-23T07:05:15;10.60;;;4.00;;
57635;SDS011;43465;50.728;4.160;2023-04-23T07:07:41;11.07;;;3.92;;
57635;SDS011;43465;50.728;4.160;2023-04-23T07:10:08;10.88;;;4.00;;
57635;SDS011;43465;50.728;4.160;2023-04-23T07:12:36;10.20;;;3.85;;
57635;SDS011;43465;50.728;4.160;2023-04-23T07:15:02;9.27;;;3.78;;
57635;SDS011;43465;50.728;4.160;2023-04-23T07:17:28;12.77;;;3.90;;
57635;SDS011;43465;50.728;4.160;2023-04-23T07:19:55;10.60;;;4.45;;
57635;SDS011;43465;50.728;4.160;2023-04-23T07:22:20;9.85;;;4.00;;
57635;SDS011;43465;50.728;4.160;2023-04-23T07:24:47;7.88;;;3.90;;
57635;SDS011;43465;50.728;4.160;2023-04-23T07:27:13;10.30;;;3.60;;
57635;SDS011;43465;50.728;4.160;2023-04-23T07:29:38;9.68;;;3.95;;
57635;SDS011;43465;50.728;4.160;2023-04-23T07:32:04;8.50;;;3.20;;
57635;SDS011;43465;50.728;4.160;2023-04-23T07:34:30;9.10;;;3.45;;
57635;SDS011;43465;50.728;4.160;2023-04-23T07:36:56;9.63;;;3.10;;
57635;SDS011;43465;50.728;4.160;2023-04-23T07:39:21;10.05;;;3.80;;
57635;SDS011;43465;50.728;4.160;2023-04-23T07:41:47;9.50;;;3.13;;
57635;SDS011;43465;50.728;4.160;2023-04-23T07:44:13;13.05;;;3.40;;
57635;SDS011;43465;50.728;4.160;2023-04-23T07:46:39;11.90;;;3.58;;
57635;SDS011;43465;50.728;4.160;2023-04-23T07:49:05;13.23;;;3.97;;
57635;SDS011;43465;50.728;4.160;2023-04-23T07:51:31;11.15;;;4.03;;
57635;SDS011;43465;50.728;4.160;2023-04-23T07:53:57;10.35;;;3.22;;
57635;SDS011;43465;50.728;4.160;2023-04-23T07:56:23;12.00;;;3.47;;
57635;SDS011;43465;50.728;4.160;2023-04-23T07:58:49;6.80;;;3.08;;
57635;SDS011;43465;50.728;4.160;2023-04-23T08:01:15;9.40;;;3.45;;
57635;SDS011;43465;50.728;4.160;2023-04-23T08:03:41;9.23;;;3.22;;
57635;SDS011;43465;50.728;4.160;2023-04-23T08:06:09;10.93;;;3.58;;
57635;SDS011;43465;50.728;4.160;2023-04-23T08:08:36;11.88;;;3.42;;
57635;SDS011;43465;50.728;4.160;2023-04-23T08:11:04;9.73;;;3.20;;
57635;SDS011;43465;50.728;4.160;2023-04-23T08:13:30;10.30;;;3.45;;
57635;SDS011;43465;50.728;4.160;2023-04-23T08:15:56;6.40;;;3.13;;
57635;SDS011;43465;50.728;4.160;2023-04-23T08:18:21;8.38;;;3.05;;
57635;SDS011;43465;50.728;4.160;2023-04-23T08:20:47;8.65;;;2.97;;
57635;SDS011;43465;50.728;4.160;2023-04-23T08:23:13;11.05;;;3.45;;
57635;SDS011;43465;50.728;4.160;2023-04-23T08:25:39;13.98;;;3.55;;
57635;SDS011;43465;50.728;4.160;2023-04-23T08:28:05;8.60;;;3.30;;
57635;SDS011;43465;50.728;4.160;2023-04-23T08:30:30;13.73;;;3.40;;
57635;SDS011;43465;50.728;4.160;2023-04-23T08:32:56;7.93;;;2.85;;
57635;SDS011;43465;50.728;4.160;2023-04-23T08:35:22;11.93;;;2.55;;
57635;SDS011;43465;50.728;4.160;2023-04-23T08:37:48;9.13;;;2.60;;
57635;SDS011;43465;50.728;4.160;2023-04-23T08:40:14;7.80;;;2.80;;
57635;SDS011;43465;50.728;4.160;2023-04-23T08:42:42;9.70;;;3.08;;
57635;SDS011;43465;50.728;4.160;2023-04-23T08:45:15;7.75;;;2.47;;
57635;SDS011;43465;50.728;4.160;2023-04-23T08:47:41;9.80;;;2.85;;
57635;SDS011;43465;50.728;4.160;2023-04-23T08:50:11;8.18;;;3.13;;
57635;SDS011;43465;50.728;4.160;2023-04-23T08:52:46;6.80;;;2.40;;
57635;SDS011;43465;50.728;4.160;2023-04-23T08:55:18;6.25;;;2.40;;
57635;SDS011;43465;50.728;4.160;2023-04-23T08:57:45;8.20;;;2.40;;
57635;SDS011;43465;50.728;4.160;2023-04-23T09:00:12;6.90;;;2.22;;
57635;SDS011;43465;50.728;4.160;2023-04-23T09:02:41;10.80;;;2.53;;
57635;SDS011;43465;50.728;4.160;2023-04-23T09:05:08;8.57;;;2.75;;
57635;SDS011;43465;50.728;4.160;2023-04-23T09:07:34;9.98;;;2.88;;
57635;SDS011;43465;50.728;4.160;2023-04-23T09:10:01;12.48;;;3.13;;
57635;SDS011;43465;50.728;4.160;2023-04-23T09:12:27;13.80;;;2.85;;
57635;SDS011;43465;50.728;4.160;2023-04-23T09:14:54;9.27;;;2.40;;
57635;SDS011;43465;50.728;4.160;2023-04-23T09:17:20;7.97;;;2.58;;
57635;SDS011;43465;50.728;4.160;2023-04-23T09:19:47;7.78;;;2.35;;
57635;SDS011;43465;50.728;4.160;2023-04-23T09:22:15;7.25;;;2.20;;
57635;SDS011;43465;50.728;4.160;2023-04-23T09:25:01;8.38;;;2.10;;
57635;SDS011;43465;50.728;4.160;2023-04-23T09:27:29;6.28;;;2.05;;
57635;SDS011;43465;50.728;4.160;2023-04-23T09:29:55;7.93;;;2.53;;
57635;SDS011;43465;50.728;4.160;2023-04-23T09:32:22;7.65;;;2.33;;
57635;SDS011;43465;50.728;4.160;2023-04-23T09:34:57;8.85;;;2.03;;
57635;SDS011;43465;50.728;4.160;2023-04-23T09:37:25;10.57;;;2.67;;
57635;SDS011;43465;50.728;4.160;2023-04-23T09:39:51;7.32;;;2.15;;
57635;SDS011;43465;50.728;4.160;2023-04-23T09:42:20;10.55;;;2.80;;
57635;SDS011;43465;50.728;4.160;2023-04-23T09:44:58;10.85;;;2.20;;
57635;SDS011;43465;50.728;4.160;2023-04-23T09:47:30;7.32;;;2.05;;
57635;SDS011;43465;50.728;4.160;2023-04-23T09:49:57;6.30;;;1.95;;
57635;SDS011;43465;50.728;4.160;2023-04-23T09:52:23;5.65;;;1.90;;
57635;SDS011;43465;50.728;4.160;2023-04-23T09:54:49;10.15;;;2.38;;
57635;SDS011;43465;50.728;4.160;2023-04-23T09:57:15;9.85;;;2.25;;
57635;SDS011;43465;50.728;4.160;2023-04-23T09:59:41;9.40;;;2.13;;
57635;SDS011;43465;50.728;4.160;2023-04-23T10:02:07;8.68;;;2.17;;
57635;SDS011;43465;50.728;4.160;2023-04-23T10:04:33;8.20;;;2.25;;
57635;SDS011;43465;50.728;4.160;2023-04-23T10:07:00;10.13;;;2.17;;
57635;SDS011;43465;50.728;4.160;2023-04-23T10:09:28;6.13;;;2.50;;
57635;SDS011;43465;50.728;4.160;2023-04-23T10:11:56;9.13;;;1.95;;
57635;SDS011;43465;50.728;4.160;2023-04-23T10:14:23;8.10;;;2.20;;
57635;SDS011;43465;50.728;4.160;2023-04-23T10:16:51;5.93;;;2.13;;
57635;SDS011;43465;50.728;4.160;2023-04-23T10:19:21;8.48;;;2.10;;
57635;SDS011;43465;50.728;4.160;2023-04-23T10:21:54;8.90;;;2.35;;
57635;SDS011;43465;50.728;4.160;2023-04-23T10:24:25;11.98;;;2.38;;
57635;SDS011;43465;50.728;4.160;2023-04-23T10:27:01;13.13;;;2.58;;
57635;SDS011;43465;50.728;4.160;2023-04-23T10:29:32;9.13;;;2.55;;
57635;SDS011;43465;50.728;4.160;2023-04-23T10:32:00;11.93;;;2.60;;
57635;SDS011;43465;50.728;4.160;2023-04-23T10:34:27;6.68;;;2.00;;
57635;SDS011;43465;50.728;4.160;2023-04-23T10:36:55;8.07;;;2.50;;
57635;SDS011;43465;50.728;4.160;2023-04-23T10:39:24;5.38;;;2.00;;
57635;SDS011;43465;50.728;4.160;2023-04-23T10:41:51;8.90;;;2.38;;
57635;SDS011;43465;50.728;4.160;2023-04-23T10:44:19;8.07;;;2.05;;
57635;SDS011;43465;50.728;4.160;2023-04-23T10:46:49;7.90;;;2.50;;
57635;SDS011;43465;50.728;4.160;2023-04-23T10:49:21;8.52;;;1.95;;
57635;SDS011;43465;50.728;4.160;2023-04-23T10:51:48;9.02;;;2.30;;
57635;SDS011;43465;50.728;4.160;2023-04-23T10:54:14;10.23;;;2.05;;
57635;SDS011;43465;50.728;4.160;2023-04-23T10:56:40;6.43;;;2.05;;
57635;SDS011;43465;50.728;4.160;2023-04-23T10:59:07;8.02;;;2.08;;
57635;SDS011;43465;50.728;4.160;2023-04-23T11:01:44;9.98;;;2.08;;
57635;SDS011;43465;50.728;4.160;2023-04-23T11:04:20;5.32;;;1.88;;
57635;SDS011;43465;50.728;4.160;2023-04-23T11:09:28;5.70;;;2.15;;
57635;SDS011;43465;50.728;4.160;2023-04-23T11:12:12;7.88;;;1.90;;
57635;SDS011;43465;50.728;4.160;2023-04-23T11:14:54;6.60;;;2.10;;
57635;SDS011;43465;50.728;4.160;2023-04-23T11:18:08;7.18;;;2.00;;
57635;SDS011;43465;50.728;4.160;2023-04-23T11:22:41;7.60;;;1.90;;
57635;SDS011;43465;50.728;4.160;2023-04-23T11:25:09;7.70;;;2.00;;
57635;SDS011;43465;50.728;4.160;2023-04-23T11:27:40;7.00;;;2.10;;
57635;SDS011;43465;50.728;4.160;2023-04-23T11:30:12;5.15;;;1.63;;
57635;SDS011;43465;50.728;4.160;2023-04-23T11:32:39;6.97;;;1.70;;
57635;SDS011;43465;50.728;4.160;2023-04-23T11:35:06;4.25;;;1.63;;
57635;SDS011;43465;50.728;4.160;2023-04-23T11:37:37;6.10;;;2.17;;
57635;SDS011;43465;50.728;4.160;2023-04-23T11:40:16;5.38;;;1.80;;
57635;SDS011;43465;50.728;4.160;2023-04-23T11:42:46;4.88;;;1.60;;
57635;SDS011;43465;50.728;4.160;2023-04-23T11:45:34;5.20;;;1.90;;
57635;SDS011;43465;50.728;4.160;2023-04-23T11:47:59;6.13;;;1.65;;
57635;SDS011;43465;50.728;4.160;2023-04-23T11:52:51;4.85;;;1.70;;
57635;SDS011;43465;50.728;4.160;2023-04-23T11:55:18;6.85;;;1.80;;
57635;SDS011;43465;50.728;4.160;2023-04-23T11:57:45;4.32;;;2.05;;
57635;SDS011;43465;50.728;4.160;2023-04-23T12:00:20;6.20;;;2.38;;
57635;SDS011;43465;50.728;4.160;2023-04-23T12:02:50;4.03;;;1.75;;
57635;SDS011;43465;50.728;4.160;2023-04-23T12:07:53;6.60;;;2.10;;
57635;SDS011;43465;50.728;4.160;2023-04-23T12:10:22;6.68;;;1.85;;
57635;SDS011;43465;50.728;4.160;2023-04-23T12:12:51;7.05;;;1.85;;
57635;SDS011;43465;50.728;4.160;2023-04-23T12:15:17;7.18;;;1.95;;
57635;SDS011;43465;50.728;4.160;2023-04-23T12:17:49;5.55;;;2.00;;
57635;SDS011;43465;50.728;4.160;2023-04-23T12:20:17;4.95;;;1.80;;
57635;SDS011;43465;50.728;4.160;2023-04-23T12:22:43;6.50;;;1.90;;
57635;SDS011;43465;50.728;4.160;2023-04-23T12:25:09;5.78;;;2.03;;
57635;SDS011;43465;50.728;4.160;2023-04-23T12:27:38;7.35;;;2.20;;
57635;SDS011;43465;50.728;4.160;2023-04-23T12:30:06;6.80;;;1.92;;
57635;SDS011;43465;50.728;4.160;2023-04-23T12:32:33;6.15;;;2.15;;
57635;SDS011;43465;50.728;4.160;2023-04-23T12:34:59;5.85;;;2.33;;
57635;SDS011;43465;50.728;4.160;2023-04-23T12:37:25;5.28;;;2.17;;
57635;SDS011;43465;50.728;4.160;2023-04-23T12:39:53;5.57;;;2.17;;
57635;SDS011;43465;50.728;4.160;2023-04-23T12:42:20;6.28;;;2.17;;
57635;SDS011;43465;50.728;4.160;2023-04-23T12:44:46;11.00;;;2.38;;
57635;SDS011;43465;50.728;4.160;2023-04-23T12:47:12;7.07;;;2.20;;
57635;SDS011;43465;50.728;4.160;2023-04-23T12:49:43;7.68;;;2.33;;
57635;SDS011;43465;50.728;4.160;2023-04-23T12:52:09;5.35;;;2.03;;
57635;SDS011;43465;50.728;4.160;2023-04-23T12:54:35;7.22;;;2.40;;
57635;SDS011;43465;50.728;4.160;2023-04-23T12:57:03;5.72;;;2.38;;
57635;SDS011;43465;50.728;4.160;2023-04-23T12:59:32;5.50;;;2.20;;
57635;SDS011;43465;50.728;4.160;2023-04-23T13:01:58;5.40;;;2.50;;
57635;SDS011;43465;50.728;4.160;2023-04-23T13:04:28;4.63;;;1.90;;
57635;SDS011;43465;50.728;4.160;2023-04-23T13:06:56;3.47;;;2.08;;
57635;SDS011;43465;50.728;4.160;2023-04-23T13:09:21;2.92;;;1.70;;
57635;SDS011;43465;50.728;4.160;2023-04-23T13:11:49;4.40;;;1.80;;
57635;SDS011;43465;50.728;4.160;2023-04-23T13:14:15;3.63;;;1.90;;
57635;SDS011;43465;50.728;4.160;2023-04-23T13:16:41;6.95;;;2.20;;
57635;SDS011;43465;50.728;4.160;2023-04-23T13:19:07;2.97;;;2.15;;
57635;SDS011;43465;50.728;4.160;2023-04-23T13:21:33;5.55;;;2.38;;
57635;SDS011;43465;50.728;4.160;2023-04-23T13:23:59;1.98;;;1.70;;
57635;SDS011;43465;50.728;4.160;2023-04-23T13:26:25;4.63;;;2.10;;
57635;SDS011;43465;50.728;4.160;2023-04-23T13:28:56;4.22;;;2.08;;
57635;SDS011;43465;50.728;4.160;2023-04-23T13:31:22;6.00;;;2.60;;
57635;SDS011;43465;50.728;4.160;2023-04-23T13:33:47;3.67;;;1.83;;
57635;SDS011;43465;50.728;4.160;2023-04-23T13:36:13;3.63;;;2.10;;
57635;SDS011;43465;50.728;4.160;2023-04-23T13:38:39;4.97;;;1.88;;
57635;SDS011;43465;50.728;4.160;2023-04-23T13:41:04;5.95;;;2.53;;
57635;SDS011;43465;50.728;4.160;2023-04-23T13:43:30;3.80;;;1.83;;
57635;SDS011;43465;50.728;4.160;2023-04-23T13:45:56;1.85;;;1.60;;
57635;SDS011;43465;50.728;4.160;2023-04-23T13:48:21;1.63;;;1.52;;
57635;SDS011;43465;50.728;4.160;2023-04-23T13:50:52;4.13;;;1.95;;
57635;SDS011;43465;50.728;4.160;2023-04-23T13:53:19;2.42;;;1.65;;
57635;SDS011;43465;50.728;4.160;2023-04-23T13:55:45;6.30;;;1.67;;
57635;SDS011;43465;50.728;4.160;2023-04-23T13:58:10;2.40;;;1.60;;
57635;SDS011;43465;50.728;4.160;2023-04-23T14:00:36;3.88;;;1.80;;
57635;SDS011;43465;50.728;4.160;2023-04-23T14:03:02;2.63;;;1.70;;
57635;SDS011;43465;50.728;4.160;2023-04-23T14:05:29;4.63;;;2.15;;
57635;SDS011;43465;50.728;4.160;2023-04-23T14:07:54;1.75;;;1.65;;
57635;SDS011;43465;50.728;4.160;2023-04-23T14:10:20;2.92;;;1.65;;
57635;SDS011;43465;50.728;4.160;2023-04-23T14:12:46;5.78;;;1.77;;
57635;SDS011;43465;50.728;4.160;2023-04-23T14:15:12;2.00;;;1.70;;
57635;SDS011;43465;50.728;4.160;2023-04-23T14:17:38;2.47;;;1.77;;
57635;SDS011;43465;50.728;4.160;2023-04-23T14:20:07;3.08;;;1.52;;
57635;SDS011;43465;50.728;4.160;2023-04-23T14:22:33;1.98;;;1.50;;
57635;SDS011;43465;50.728;4.160;2023-04-23T14:25:02;1.77;;;1.60;;
57635;SDS011;43465;50.728;4.160;2023-04-23T14:27:38;4.13;;;2.13;;
57635;SDS011;43465;50.728;4.160;2023-04-23T14:30:06;3.03;;;1.80;;
57635;SDS011;43465;50.728;4.160;2023-04-23T14:32:50;3.83;;;2.10;;
57635;SDS011;43465;50.728;4.160;2023-04-23T14:35:17;2.58;;;1.83;;
57635;SDS011;43465;50.728;4.160;2023-04-23T14:37:43;2.05;;;1.67;;
57635;SDS011;43465;50.728;4.160;2023-04-23T14:40:10;2.03;;;1.70;;
57635;SDS011;43465;50.728;4.160;2023-04-23T14:42:44;2.45;;;1.92;;
57635;SDS011;43465;50.728;4.160;2023-04-23T14:45:10;2.25;;;1.80;;